sensor_id;sensor_type;location;lat;lon;timestamp;P1;durP1;ratioP1;P2;durP2;ratioP2
11245;SDS011;59870;50.106;8.580;2023-04-25T00:01:17;6.53;;;6.13;;
11245;SDS011;59870;50.106;8.580;2023-04-25T00:03:45;6.43;;;6.03;;
11245;SDS011;59870;50.106;8.580;2023-04-25T00:06:13;7.27;;;6.77;;
11245;SDS011;59870;50.106;8.580;2023-04-25T00:08:45;7.10;;;6.63;;
11245;SDS011;59870;50.106;8.580;2023-04-25T00:11:13;6.60;;;6.13;;
11245;SDS011;59870;50.106;8.580;2023-04-25T00:13:40;7.03;;;6.57;;
11245;SDS011;59870;50.106;8.580;2023-04-25T00:16:08;6.07;;;5.67;;
11245;SDS011;59870;50.106;8.580;2023-04-25T00:18:43;6.37;;;5.97;;
11245;SDS011;59870;50.106;8.580;2023-04-25T00:21:13;6.10;;;5.80;;
11245;SDS011;59870;50.106;8.580;2023-04-25T00:23:40;6.47;;;6.03;;
11245;SDS011;59870;50.106;8.580;2023-04-25T00:26:08;6.87;;;6.27;;
11245;SDS011;59870;50.106;8.580;2023-04-25T00:28:35;6.77;;;6.27;;
11245;SDS011;59870;50.106;8.580;2023-04-25T00:31:02;6.57;;;6.07;;
11245;SDS011;59870;50.106;8.580;2023-04-25T00:33:30;6.10;;;5.73;;
11245;SDS011;59870;50.106;8.580;2023-04-25T00:35:57;7.37;;;6.90;;
11245;SDS011;59870;50.106;8.580;2023-04-25T00:38:25;6.53;;;6.10;;
11245;SDS011;59870;50.106;8.580;2023-04-25T00:40:52;7.50;;;6.80;;
11245;SDS011;59870;50.106;8.580;2023-04-25T00:43:21;6.93;;;6.43;;
11245;SDS011;59870;50.106;8.580;2023-04-25T00:45:48;7.57;;;7.07;;
11245;SDS011;59870;50.106;8.580;2023-04-25T00:52:00;8.07;;;7.37;;
11245;SDS011;59870;50.106;8.580;2023-04-25T00:54:27;7.83;;;7.33;;
11245;SDS011;59870;50.106;8.580;2023-04-25T01:01:44;7.20;;;6.70;;
11245;SDS011;59870;50.106;8.580;2023-04-25T01:04:12;7.13;;;6.70;;
11245;SDS011;59870;50.106;8.580;2023-04-25T01:06:41;5.47;;;5.07;;
11245;SDS011;59870;50.106;8.580;2023-04-25T01:09:09;5.47;;;5.17;;
11245;SDS011;59870;50.106;8.580;2023-04-25T01:11:38;5.33;;;5.03;;
11245;SDS011;59870;50.106;8.580;2023-04-25T01:14:06;6.60;;;6.10;;
11245;SDS011;59870;50.106;8.580;2023-04-25T01:16:34;5.50;;;5.20;;
11245;SDS011;59870;50.106;8.580;2023-04-25T01:19:06;5.83;;;5.53;;
11245;SDS011;59870;50.106;8.580;2023-04-25T01:21:38;5.50;;;5.10;;
11245;SDS011;59870;50.106;8.580;2023-04-25T01:24:06;5.70;;;5.33;;
11245;SDS011;59870;50.106;8.580;2023-04-25T01:26:34;6.33;;;5.73;;
11245;SDS011;59870;50.106;8.580;2023-04-25T01:29:04;5.93;;;5.53;;
11245;SDS011;59870;50.106;8.580;2023-04-25T01:34:27;6.17;;;5.73;;
11245;SDS011;59870;50.106;8.580;2023-04-25T01:36:57;5.43;;;4.70;;
11245;SDS011;59870;50.106;8.580;2023-04-25T01:39:28;5.63;;;5.10;;
11245;SDS011;59870;50.106;8.580;2023-04-25T01:41:56;5.27;;;4.87;;
11245;SDS011;59870;50.106;8.580;2023-04-25T01:44:39;5.57;;;5.17;;
11245;SDS011;59870;50.106;8.580;2023-04-25T01:47:07;5.80;;;5.23;;
11245;SDS011;59870;50.106;8.580;2023-04-25T01:49:34;5.83;;;5.27;;
11245;SDS011;59870;50.106;8.580;2023-04-25T01:52:05;6.03;;;5.63;;
11245;SDS011;59870;50.106;8.580;2023-04-25T01:54:33;5.90;;;5.50;;
11245;SDS011;59870;50.106;8.580;2023-04-25T01:57:21;6.60;;;6.10;;
11245;SDS011;59870;50.106;8.580;2023-04-25T01:59:49;8.50;;;6.93;;
11245;SDS011;59870;50.106;8.580;2023-04-25T02:02:36;6.97;;;6.57;;
11245;SDS011;59870;50.106;8.580;2023-04-25T02:05:06;7.20;;;6.50;;
11245;SDS011;59870;50.106;8.580;2023-04-25T02:07:36;7.30;;;6.70;;
11245;SDS011;59870;50.106;8.580;2023-04-25T02:11:09;7.30;;;6.70;;
11245;SDS011;59870;50.106;8.580;2023-04-25T02:13:41;7.00;;;6.50;;
11245;SDS011;59870;50.106;8.580;2023-04-25T02:16:29;7.80;;;7.13;;
11245;SDS011;59870;50.106;8.580;2023-04-25T02:18:59;7.37;;;6.87;;
11245;SDS011;59870;50.106;8.580;2023-04-25T02:21:26;7.23;;;6.63;;
11245;SDS011;59870;50.106;8.580;2023-04-25T02:23:54;7.80;;;7.10;;
11245;SDS011;59870;50.106;8.580;2023-04-25T02:26:22;8.40;;;7.03;;
11245;SDS011;59870;50.106;8.580;2023-04-25T02:28:50;6.83;;;6.43;;
11245;SDS011;59870;50.106;8.580;2023-04-25T02:31:19;7.47;;;6.87;;
11245;SDS011;59870;50.106;8.580;2023-04-25T02:33:47;7.37;;;6.73;;
11245;SDS011;59870;50.106;8.580;2023-04-25T02:36:15;7.30;;;6.70;;
11245;SDS011;59870;50.106;8.580;2023-04-25T02:38:44;7.57;;;6.97;;
11245;SDS011;59870;50.106;8.580;2023-04-25T02:41:11;7.87;;;7.30;;
11245;SDS011;59870;50.106;8.580;2023-04-25T02:43:39;8.47;;;7.73;;
11245;SDS011;59870;50.106;8.580;2023-04-25T02:46:06;7.83;;;7.00;;
11245;SDS011;59870;50.106;8.580;2023-04-25T02:48:34;7.67;;;7.10;;
11245;SDS011;59870;50.106;8.580;2023-04-25T02:51:04;8.03;;;7.33;;
11245;SDS011;59870;50.106;8.580;2023-04-25T02:53:31;7.90;;;7.30;;
11245;SDS011;59870;50.106;8.580;2023-04-25T02:55:59;7.63;;;7.07;;
11245;SDS011;59870;50.106;8.580;2023-04-25T02:58:27;11.43;;;7.67;;
11245;SDS011;59870;50.106;8.580;2023-04-25T03:00:55;7.50;;;7.00;;
11245;SDS011;59870;50.106;8.580;2023-04-25T03:03:22;8.23;;;7.53;;
11245;SDS011;59870;50.106;8.580;2023-04-25T03:08:44;7.77;;;7.07;;
11245;SDS011;59870;50.106;8.580;2023-04-25T03:11:11;7.20;;;6.70;;
11245;SDS011;59870;50.106;8.580;2023-04-25T03:13:41;7.93;;;7.33;;
11245;SDS011;59870;50.106;8.580;2023-04-25T03:16:09;7.93;;;7.23;;
11245;SDS011;59870;50.106;8.580;2023-04-25T03:18:37;8.03;;;7.30;;
11245;SDS011;59870;50.106;8.580;2023-04-25T03:21:05;7.97;;;7.27;;
11245;SDS011;59870;50.106;8.580;2023-04-25T03:23:33;8.80;;;7.83;;
11245;SDS011;59870;50.106;8.580;2023-04-25T03:26:01;8.77;;;8.07;;
11245;SDS011;59870;50.106;8.580;2023-04-25T03:28:29;8.30;;;7.60;;
11245;SDS011;59870;50.106;8.580;2023-04-25T03:30:57;8.70;;;7.80;;
11245;SDS011;59870;50.106;8.580;2023-04-25T03:33:25;8.43;;;7.63;;
11245;SDS011;59870;50.106;8.580;2023-04-25T03:35:53;8.30;;;7.60;;
11245;SDS011;59870;50.106;8.580;2023-04-25T03:38:20;9.63;;;8.40;;
11245;SDS011;59870;50.106;8.580;2023-04-25T03:40:48;8.53;;;7.70;;
11245;SDS011;59870;50.106;8.580;2023-04-25T03:43:22;9.30;;;7.13;;
11245;SDS011;59870;50.106;8.580;2023-04-25T03:45:55;7.93;;;7.30;;
11245;SDS011;59870;50.106;8.580;2023-04-25T03:51:02;8.20;;;7.40;;
11245;SDS011;59870;50.106;8.580;2023-04-25T03:53:32;8.50;;;7.70;;
11245;SDS011;59870;50.106;8.580;2023-04-25T03:56:25;8.57;;;7.70;;
11245;SDS011;59870;50.106;8.580;2023-04-25T03:59:00;8.73;;;7.77;;
11245;SDS011;59870;50.106;8.580;2023-04-25T04:04:48;8.90;;;8.03;;
11245;SDS011;59870;50.106;8.580;2023-04-25T04:16:23;9.17;;;7.80;;
11245;SDS011;59870;50.106;8.580;2023-04-25T04:18:53;8.87;;;7.97;;
11245;SDS011;59870;50.106;8.580;2023-04-25T04:21:21;9.93;;;8.00;;
11245;SDS011;59870;50.106;8.580;2023-04-25T04:31:05;13.90;;;8.43;;
11245;SDS011;59870;50.106;8.580;2023-04-25T04:33:32;9.70;;;8.73;;
11245;SDS011;59870;50.106;8.580;2023-04-25T04:36:03;9.67;;;8.40;;
11245;SDS011;59870;50.106;8.580;2023-04-25T04:38:31;14.10;;;8.90;;
11245;SDS011;59870;50.106;8.580;2023-04-25T04:53:41;10.30;;;8.53;;
11245;SDS011;59870;50.106;8.580;2023-04-25T04:56:17;17.47;;;8.03;;
11245;SDS011;59870;50.106;8.580;2023-04-25T04:59:33;11.80;;;7.77;;
11245;SDS011;59870;50.106;8.580;2023-04-25T05:15:17;9.50;;;8.13;;
11245;SDS011;59870;50.106;8.580;2023-04-25T05:18:04;9.37;;;8.33;;
11245;SDS011;59870;50.106;8.580;2023-04-25T05:20:45;9.40;;;8.43;;
11245;SDS011;59870;50.106;8.580;2023-04-25T05:23:34;9.47;;;7.63;;
11245;SDS011;59870;50.106;8.580;2023-04-25T05:30:05;9.53;;;7.70;;
11245;SDS011;59870;50.106;8.580;2023-04-25T05:36:03;9.40;;;7.50;;
11245;SDS011;59870;50.106;8.580;2023-04-25T05:38:31;7.63;;;6.57;;
11245;SDS011;59870;50.106;8.580;2023-04-25T05:42:06;9.87;;;6.70;;
11245;SDS011;59870;50.106;8.580;2023-04-25T05:58:34;8.17;;;6.30;;
11245;SDS011;59870;50.106;8.580;2023-04-25T06:01:03;6.93;;;6.27;;
11245;SDS011;59870;50.106;8.580;2023-04-25T06:03:30;7.63;;;6.33;;
11245;SDS011;59870;50.106;8.580;2023-04-25T06:05:58;6.43;;;5.93;;
11245;SDS011;59870;50.106;8.580;2023-04-25T06:08:26;7.13;;;5.63;;
11245;SDS011;59870;50.106;8.580;2023-04-25T06:10:53;6.70;;;5.97;;
11245;SDS011;59870;50.106;8.580;2023-04-25T06:13:22;6.57;;;6.00;;
11245;SDS011;59870;50.106;8.580;2023-04-25T06:15:50;10.30;;;5.80;;
11245;SDS011;59870;50.106;8.580;2023-04-25T06:18:18;6.00;;;5.50;;
11245;SDS011;59870;50.106;8.580;2023-04-25T06:20:46;7.03;;;5.97;;
11245;SDS011;59870;50.106;8.580;2023-04-25T06:23:16;8.23;;;5.77;;
11245;SDS011;59870;50.106;8.580;2023-04-25T06:25:53;9.27;;;5.70;;
11245;SDS011;59870;50.106;8.580;2023-04-25T06:28:21;7.67;;;5.97;;
11245;SDS011;59870;50.106;8.580;2023-04-25T06:30:48;9.37;;;5.90;;
11245;SDS011;59870;50.106;8.580;2023-04-25T06:33:18;6.87;;;5.27;;
11245;SDS011;59870;50.106;8.580;2023-04-25T06:35:48;6.50;;;5.73;;
11245;SDS011;59870;50.106;8.580;2023-04-25T06:38:31;10.70;;;5.87;;
11245;SDS011;59870;50.106;8.580;2023-04-25T06:49:50;6.50;;;5.53;;
11245;SDS011;59870;50.106;8.580;2023-04-25T06:52:19;6.57;;;5.13;;
11245;SDS011;59870;50.106;8.580;2023-04-25T06:54:47;6.47;;;5.27;;
11245;SDS011;59870;50.106;8.580;2023-04-25T07:07:35;5.83;;;4.60;;
11245;SDS011;59870;50.106;8.580;2023-04-25T07:19:44;5.77;;;4.50;;
11245;SDS011;59870;50.106;8.580;2023-04-25T07:22:12;4.67;;;4.23;;
11245;SDS011;59870;50.106;8.580;2023-04-25T07:31:30;5.10;;;4.60;;
11245;SDS011;59870;50.106;8.580;2023-04-25T07:33:59;5.73;;;4.17;;
11245;SDS011;59870;50.106;8.580;2023-04-25T07:36:28;4.43;;;3.97;;
11245;SDS011;59870;50.106;8.580;2023-04-25T07:54:17;4.67;;;3.97;;
11245;SDS011;59870;50.106;8.580;2023-04-25T07:56:51;8.10;;;4.70;;
11245;SDS011;59870;50.106;8.580;2023-04-25T07:59:24;4.30;;;4.00;;
11245;SDS011;59870;50.106;8.580;2023-04-25T08:01:55;3.90;;;3.50;;
11245;SDS011;59870;50.106;8.580;2023-04-25T08:04:24;3.90;;;3.60;;
11245;SDS011;59870;50.106;8.580;2023-04-25T08:06:57;5.67;;;3.97;;
11245;SDS011;59870;50.106;8.580;2023-04-25T08:09:29;3.90;;;3.60;;
11245;SDS011;59870;50.106;8.580;2023-04-25T08:12:02;5.30;;;3.97;;
11245;SDS011;59870;50.106;8.580;2023-04-25T08:14:32;4.40;;;4.00;;
11245;SDS011;59870;50.106;8.580;2023-04-25T08:17:04;4.10;;;3.80;;
11245;SDS011;59870;50.106;8.580;2023-04-25T08:19:34;4.13;;;3.70;;
11245;SDS011;59870;50.106;8.580;2023-04-25T08:22:02;3.70;;;3.43;;
11245;SDS011;59870;50.106;8.580;2023-04-25T08:24:41;3.73;;;3.53;;
11245;SDS011;59870;50.106;8.580;2023-04-25T08:27:11;3.87;;;3.50;;
11245;SDS011;59870;50.106;8.580;2023-04-25T08:29:41;3.53;;;3.33;;
11245;SDS011;59870;50.106;8.580;2023-04-25T08:32:09;4.83;;;3.70;;
11245;SDS011;59870;50.106;8.580;2023-04-25T08:34:41;3.60;;;3.30;;
11245;SDS011;59870;50.106;8.580;2023-04-25T08:37:10;3.90;;;3.60;;
11245;SDS011;59870;50.106;8.580;2023-04-25T08:39:49;3.87;;;3.57;;
11245;SDS011;59870;50.106;8.580;2023-04-25T08:42:19;4.37;;;3.47;;
11245;SDS011;59870;50.106;8.580;2023-04-25T08:44:49;4.60;;;3.90;;
11245;SDS011;59870;50.106;8.580;2023-04-25T08:47:18;4.27;;;3.50;;
11245;SDS011;59870;50.106;8.580;2023-04-25T08:49:53;4.07;;;3.77;;
11245;SDS011;59870;50.106;8.580;2023-04-25T08:52:22;3.10;;;2.90;;
11245;SDS011;59870;50.106;8.580;2023-04-25T08:54:52;4.40;;;4.10;;
11245;SDS011;59870;50.106;8.580;2023-04-25T08:57:21;3.70;;;3.50;;
11245;SDS011;59870;50.106;8.580;2023-04-25T08:59:51;4.87;;;3.90;;
11245;SDS011;59870;50.106;8.580;2023-04-25T09:02:20;4.07;;;3.77;;
11245;SDS011;59870;50.106;8.580;2023-04-25T09:04:50;6.47;;;4.40;;
11245;SDS011;59870;50.106;8.580;2023-04-25T09:07:21;3.97;;;3.60;;
11245;SDS011;59870;50.106;8.580;2023-04-25T09:09:49;5.10;;;4.60;;
11245;SDS011;59870;50.106;8.580;2023-04-25T09:12:19;4.73;;;4.37;;
11245;SDS011;59870;50.106;8.580;2023-04-25T09:15:00;5.23;;;4.73;;
11245;SDS011;59870;50.106;8.580;2023-04-25T09:17:59;5.50;;;5.00;;
11245;SDS011;59870;50.106;8.580;2023-04-25T09:20:32;5.67;;;5.17;;
11245;SDS011;59870;50.106;8.580;2023-04-25T09:23:27;8.40;;;4.97;;
11245;SDS011;59870;50.106;8.580;2023-04-25T09:25:55;4.40;;;4.00;;
11245;SDS011;59870;50.106;8.580;2023-04-25T09:28:23;5.30;;;4.80;;
11245;SDS011;59870;50.106;8.580;2023-04-25T09:30:56;5.40;;;4.90;;
11245;SDS011;59870;50.106;8.580;2023-04-25T09:33:34;4.77;;;4.40;;
11245;SDS011;59870;50.106;8.580;2023-04-25T09:36:06;4.30;;;3.90;;
11245;SDS011;59870;50.106;8.580;2023-04-25T09:39:04;4.83;;;4.43;;
11245;SDS011;59870;50.106;8.580;2023-04-25T09:41:53;5.00;;;4.60;;
11245;SDS011;59870;50.106;8.580;2023-04-25T09:44:24;4.43;;;4.13;;
11245;SDS011;59870;50.106;8.580;2023-04-25T09:46:53;4.70;;;4.30;;
11245;SDS011;59870;50.106;8.580;2023-04-25T09:49:24;5.70;;;4.83;;
11245;SDS011;59870;50.106;8.580;2023-04-25T09:52:01;5.50;;;5.00;;
11245;SDS011;59870;50.106;8.580;2023-04-25T09:54:45;5.10;;;4.33;;
11245;SDS011;59870;50.106;8.580;2023-04-25T09:57:21;4.43;;;4.13;;
11245;SDS011;59870;50.106;8.580;2023-04-25T09:59:53;4.93;;;4.53;;
11245;SDS011;59870;50.106;8.580;2023-04-25T10:02:23;4.87;;;4.40;;
11245;SDS011;59870;50.106;8.580;2023-04-25T10:04:59;4.63;;;4.33;;
11245;SDS011;59870;50.106;8.580;2023-04-25T10:07:37;3.90;;;3.60;;
11245;SDS011;59870;50.106;8.580;2023-04-25T10:10:09;4.43;;;4.13;;
11245;SDS011;59870;50.106;8.580;2023-04-25T10:12:41;4.73;;;4.20;;
11245;SDS011;59870;50.106;8.580;2023-04-25T10:15:11;5.13;;;3.83;;
11245;SDS011;59870;50.106;8.580;2023-04-25T10:17:41;4.30;;;4.00;;
11245;SDS011;59870;50.106;8.580;2023-04-25T10:20:09;4.50;;;4.17;;
11245;SDS011;59870;50.106;8.580;2023-04-25T10:22:39;4.70;;;4.30;;
11245;SDS011;59870;50.106;8.580;2023-04-25T10:25:11;4.93;;;4.53;;
11245;SDS011;59870;50.106;8.580;2023-04-25T10:27:39;4.63;;;4.33;;
11245;SDS011;59870;50.106;8.580;2023-04-25T10:30:07;5.03;;;4.50;;
11245;SDS011;59870;50.106;8.580;2023-04-25T10:32:44;5.20;;;4.80;;
11245;SDS011;59870;50.106;8.580;2023-04-25T10:35:16;4.40;;;3.80;;
11245;SDS011;59870;50.106;8.580;2023-04-25T10:40:40;4.23;;;3.93;;
11245;SDS011;59870;50.106;8.580;2023-04-25T10:46:01;5.10;;;4.70;;
11245;SDS011;59870;50.106;8.580;2023-04-25T10:48:30;4.47;;;4.07;;
11245;SDS011;59870;50.106;8.580;2023-04-25T10:51:11;4.70;;;4.27;;
11245;SDS011;59870;50.106;8.580;2023-04-25T10:53:46;7.03;;;4.33;;
11245;SDS011;59870;50.106;8.580;2023-04-25T10:56:21;5.20;;;4.70;;
11245;SDS011;59870;50.106;8.580;2023-04-25T10:58:51;4.70;;;4.40;;
11245;SDS011;59870;50.106;8.580;2023-04-25T11:01:35;5.00;;;4.60;;
11245;SDS011;59870;50.106;8.580;2023-04-25T11:10:12;4.73;;;4.37;;
11245;SDS011;59870;50.106;8.580;2023-04-25T11:12:44;4.87;;;4.50;;
11245;SDS011;59870;50.106;8.580;2023-04-25T11:15:13;4.00;;;3.70;;
11245;SDS011;59870;50.106;8.580;2023-04-25T11:17:44;6.47;;;4.97;;
11245;SDS011;59870;50.106;8.580;2023-04-25T11:30:15;6.27;;;4.67;;
11245;SDS011;59870;50.106;8.580;2023-04-25T11:32:46;6.63;;;4.23;;
11245;SDS011;59870;50.106;8.580;2023-04-25T11:35:15;4.70;;;3.80;;
11245;SDS011;59870;50.106;8.580;2023-04-25T11:37:43;6.10;;;4.07;;
11245;SDS011;59870;50.106;8.580;2023-04-25T11:40:11;4.87;;;4.27;;
11245;SDS011;59870;50.106;8.580;2023-04-25T11:42:44;6.60;;;3.53;;
11245;SDS011;59870;50.106;8.580;2023-04-25T11:45:13;4.57;;;3.27;;
11245;SDS011;59870;50.106;8.580;2023-04-25T11:47:41;4.90;;;3.70;;
11245;SDS011;59870;50.106;8.580;2023-04-25T11:50:09;4.80;;;3.97;;
11245;SDS011;59870;50.106;8.580;2023-04-25T11:52:38;5.50;;;3.77;;
11245;SDS011;59870;50.106;8.580;2023-04-25T11:55:12;4.43;;;4.07;;
11245;SDS011;59870;50.106;8.580;2023-04-25T11:57:42;4.53;;;3.87;;
11245;SDS011;59870;50.106;8.580;2023-04-25T12:00:11;6.60;;;4.37;;
11245;SDS011;59870;50.106;8.580;2023-04-25T12:05:39;4.27;;;3.87;;
11245;SDS011;59870;50.106;8.580;2023-04-25T12:08:10;3.73;;;3.40;;
11245;SDS011;59870;50.106;8.580;2023-04-25T12:11:31;5.03;;;3.63;;
11245;SDS011;59870;50.106;8.580;2023-04-25T12:14:22;4.70;;;3.57;;
11245;SDS011;59870;50.106;8.580;2023-04-25T12:19:56;3.53;;;3.23;;
11245;SDS011;59870;50.106;8.580;2023-04-25T12:22:26;5.40;;;3.57;;
11245;SDS011;59870;50.106;8.580;2023-04-25T12:24:53;6.07;;;3.57;;
11245;SDS011;59870;50.106;8.580;2023-04-25T12:27:23;3.63;;;3.30;;
11245;SDS011;59870;50.106;8.580;2023-04-25T12:29:54;4.67;;;3.80;;
11245;SDS011;59870;50.106;8.580;2023-04-25T12:32:23;3.73;;;3.43;;
11245;SDS011;59870;50.106;8.580;2023-04-25T12:34:51;4.90;;;3.67;;
11245;SDS011;59870;50.106;8.580;2023-04-25T12:37:19;4.10;;;3.70;;
11245;SDS011;59870;50.106;8.580;2023-04-25T12:39:47;5.20;;;3.60;;
11245;SDS011;59870;50.106;8.580;2023-04-25T12:42:14;4.73;;;3.60;;
11245;SDS011;59870;50.106;8.580;2023-04-25T12:44:43;7.83;;;4.23;;
11245;SDS011;59870;50.106;8.580;2023-04-25T12:47:10;3.63;;;3.33;;
11245;SDS011;59870;50.106;8.580;2023-04-25T12:53:08;4.73;;;3.50;;
11245;SDS011;59870;50.106;8.580;2023-04-25T12:55:40;5.77;;;4.03;;
11245;SDS011;59870;50.106;8.580;2023-04-25T12:58:08;5.90;;;3.97;;
11245;SDS011;59870;50.106;8.580;2023-04-25T13:00:36;5.07;;;3.70;;
11245;SDS011;59870;50.106;8.580;2023-04-25T13:03:06;6.90;;;4.87;;
11245;SDS011;59870;50.106;8.580;2023-04-25T13:05:40;4.33;;;3.57;;
11245;SDS011;59870;50.106;8.580;2023-04-25T13:08:09;8.70;;;4.37;;
11245;SDS011;59870;50.106;8.580;2023-04-25T13:10:40;3.80;;;3.50;;
11245;SDS011;59870;50.106;8.580;2023-04-25T13:16:07;5.63;;;4.73;;
11245;SDS011;59870;50.106;8.580;2023-04-25T13:18:37;5.10;;;4.57;;
11245;SDS011;59870;50.106;8.580;2023-04-25T13:21:04;7.20;;;4.90;;
11245;SDS011;59870;50.106;8.580;2023-04-25T13:23:42;8.03;;;4.73;;
11245;SDS011;59870;50.106;8.580;2023-04-25T13:26:12;4.93;;;4.27;;
11245;SDS011;59870;50.106;8.580;2023-04-25T13:28:40;4.80;;;4.47;;
11245;SDS011;59870;50.106;8.580;2023-04-25T13:31:22;4.90;;;4.50;;
11245;SDS011;59870;50.106;8.580;2023-04-25T13:36:43;7.07;;;4.60;;
11245;SDS011;59870;50.106;8.580;2023-04-25T13:39:12;7.93;;;4.50;;
11245;SDS011;59870;50.106;8.580;2023-04-25T13:41:40;5.70;;;5.13;;
11245;SDS011;59870;50.106;8.580;2023-04-25T13:44:08;5.23;;;4.63;;
11245;SDS011;59870;50.106;8.580;2023-04-25T13:46:37;4.80;;;3.83;;
11245;SDS011;59870;50.106;8.580;2023-04-25T13:49:13;6.93;;;3.97;;
11245;SDS011;59870;50.106;8.580;2023-04-25T13:51:41;7.83;;;3.70;;
11245;SDS011;59870;50.106;8.580;2023-04-25T13:54:09;4.40;;;4.00;;
11245;SDS011;59870;50.106;8.580;2023-04-25T13:56:37;4.67;;;4.07;;
11245;SDS011;59870;50.106;8.580;2023-04-25T13:59:05;6.70;;;4.30;;
11245;SDS011;59870;50.106;8.580;2023-04-25T14:01:33;5.03;;;4.10;;
11245;SDS011;59870;50.106;8.580;2023-04-25T14:04:02;4.30;;;3.63;;
11245;SDS011;59870;50.106;8.580;2023-04-25T14:06:32;5.63;;;4.00;;
11245;SDS011;59870;50.106;8.580;2023-04-25T14:10:11;5.97;;;3.80;;
11245;SDS011;59870;50.106;8.580;2023-04-25T14:12:46;4.03;;;3.57;;
11245;SDS011;59870;50.106;8.580;2023-04-25T14:15:14;7.13;;;3.30;;
11245;SDS011;59870;50.106;8.580;2023-04-25T14:17:42;5.17;;;3.83;;
11245;SDS011;59870;50.106;8.580;2023-04-25T14:20:10;4.40;;;3.93;;
11245;SDS011;59870;50.106;8.580;2023-04-25T14:22:38;4.23;;;3.47;;
11245;SDS011;59870;50.106;8.580;2023-04-25T14:25:09;6.37;;;3.80;;
11245;SDS011;59870;50.106;8.580;2023-04-25T14:27:37;5.37;;;3.43;;
11245;SDS011;59870;50.106;8.580;2023-04-25T14:30:04;5.20;;;3.70;;
11245;SDS011;59870;50.106;8.580;2023-04-25T14:32:33;3.90;;;3.00;;
11245;SDS011;59870;50.106;8.580;2023-04-25T14:35:01;3.50;;;3.20;;
11245;SDS011;59870;50.106;8.580;2023-04-25T14:37:29;8.17;;;3.70;;
11245;SDS011;59870;50.106;8.580;2023-04-25T14:39:57;4.80;;;3.23;;
11245;SDS011;59870;50.106;8.580;2023-04-25T14:42:24;6.87;;;3.60;;
11245;SDS011;59870;50.106;8.580;2023-04-25T14:44:54;3.33;;;3.00;;
11245;SDS011;59870;50.106;8.580;2023-04-25T14:47:22;4.00;;;3.30;;
11245;SDS011;59870;50.106;8.580;2023-04-25T14:49:50;4.93;;;3.47;;
11245;SDS011;59870;50.106;8.580;2023-04-25T14:52:20;4.30;;;3.47;;
11245;SDS011;59870;50.106;8.580;2023-04-25T14:54:54;4.03;;;3.73;;
11245;SDS011;59870;50.106;8.580;2023-04-25T15:10:02;7.90;;;4.07;;
11245;SDS011;59870;50.106;8.580;2023-04-25T15:12:45;3.90;;;3.60;;
11245;SDS011;59870;50.106;8.580;2023-04-25T15:15:13;4.60;;;4.03;;
11245;SDS011;59870;50.106;8.580;2023-04-25T15:17:52;4.50;;;3.50;;
11245;SDS011;59870;50.106;8.580;2023-04-25T15:21:46;5.07;;;3.53;;
11245;SDS011;59870;50.106;8.580;2023-04-25T15:24:28;3.93;;;3.50;;
11245;SDS011;59870;50.106;8.580;2023-04-25T15:30:30;7.50;;;3.90;;
11245;SDS011;59870;50.106;8.580;2023-04-25T15:33:06;5.70;;;3.80;;
11245;SDS011;59870;50.106;8.580;2023-04-25T15:35:34;5.17;;;3.70;;
11245;SDS011;59870;50.106;8.580;2023-04-25T15:38:02;4.77;;;3.30;;
11245;SDS011;59870;50.106;8.580;2023-04-25T15:43:33;4.73;;;3.33;;
11245;SDS011;59870;50.106;8.580;2023-04-25T15:46:06;7.17;;;3.73;;
11245;SDS011;59870;50.106;8.580;2023-04-25T15:48:36;4.80;;;3.80;;
11245;SDS011;59870;50.106;8.580;2023-04-25T15:51:04;3.97;;;3.67;;
11245;SDS011;59870;50.106;8.580;2023-04-25T15:53:41;5.23;;;3.73;;
11245;SDS011;59870;50.106;8.580;2023-04-25T15:58:20;4.17;;;3.07;;
11245;SDS011;59870;50.106;8.580;2023-04-25T16:01:58;3.80;;;3.50;;
11245;SDS011;59870;50.106;8.580;2023-04-25T16:11:33;3.30;;;3.10;;
11245;SDS011;59870;50.106;8.580;2023-04-25T16:14:00;4.90;;;3.50;;
11245;SDS011;59870;50.106;8.580;2023-04-25T16:16:28;5.80;;;3.60;;
11245;SDS011;59870;50.106;8.580;2023-04-25T16:18:56;3.37;;;3.07;;
11245;SDS011;59870;50.106;8.580;2023-04-25T16:25:24;3.93;;;3.47;;
11245;SDS011;59870;50.106;8.580;2023-04-25T16:27:54;5.30;;;4.07;;
11245;SDS011;59870;50.106;8.580;2023-04-25T16:30:21;5.90;;;3.00;;
11245;SDS011;59870;50.106;8.580;2023-04-25T16:32:49;3.50;;;3.20;;
11245;SDS011;59870;50.106;8.580;2023-04-25T16:40:20;5.97;;;3.30;;
11245;SDS011;59870;50.106;8.580;2023-04-25T16:42:48;4.60;;;3.10;;
11245;SDS011;59870;50.106;8.580;2023-04-25T16:45:15;3.27;;;3.00;;
11245;SDS011;59870;50.106;8.580;2023-04-25T16:47:45;5.10;;;3.37;;
11245;SDS011;59870;50.106;8.580;2023-04-25T16:50:13;12.23;;;3.70;;
11245;SDS011;59870;50.106;8.580;2023-04-25T16:52:43;4.77;;;3.87;;
11245;SDS011;59870;50.106;8.580;2023-04-25T16:55:11;5.07;;;3.30;;
11245;SDS011;59870;50.106;8.580;2023-04-25T16:57:39;4.90;;;3.40;;
11245;SDS011;59870;50.106;8.580;2023-04-25T17:00:09;6.97;;;3.17;;
11245;SDS011;59870;50.106;8.580;2023-04-25T17:02:39;5.17;;;3.47;;
11245;SDS011;59870;50.106;8.580;2023-04-25T17:05:07;6.77;;;3.27;;
11245;SDS011;59870;50.106;8.580;2023-04-25T17:10:27;6.47;;;3.60;;
11245;SDS011;59870;50.106;8.580;2023-04-25T17:12:56;4.73;;;3.70;;
11245;SDS011;59870;50.106;8.580;2023-04-25T17:15:23;4.37;;;3.43;;
11245;SDS011;59870;50.106;8.580;2023-04-25T17:17:51;4.30;;;3.87;;
11245;SDS011;59870;50.106;8.580;2023-04-25T17:20:18;3.13;;;2.90;;
11245;SDS011;59870;50.106;8.580;2023-04-25T17:25:41;4.07;;;2.87;;
11245;SDS011;59870;50.106;8.580;2023-04-25T17:28:09;5.83;;;3.03;;
11245;SDS011;59870;50.106;8.580;2023-04-25T17:30:56;3.70;;;3.40;;
11245;SDS011;59870;50.106;8.580;2023-04-25T17:33:24;4.23;;;3.20;;
11245;SDS011;59870;50.106;8.580;2023-04-25T17:35:53;4.23;;;3.83;;
11245;SDS011;59870;50.106;8.580;2023-04-25T17:41:28;3.60;;;3.30;;
11245;SDS011;59870;50.106;8.580;2023-04-25T18:19:08;3.47;;;3.17;;
11245;SDS011;59870;50.106;8.580;2023-04-25T18:24:53;5.30;;;3.10;;
11245;SDS011;59870;50.106;8.580;2023-04-25T18:30:06;5.33;;;3.30;;
11245;SDS011;59870;50.106;8.580;2023-04-25T18:41:29;6.03;;;3.10;;
11245;SDS011;59870;50.106;8.580;2023-04-25T18:44:21;5.03;;;3.43;;
11245;SDS011;59870;50.106;8.580;2023-04-25T18:46:48;3.93;;;3.57;;
11245;SDS011;59870;50.106;8.580;2023-04-25T18:49:16;4.20;;;3.70;;
11245;SDS011;59870;50.106;8.580;2023-04-25T18:51:44;4.07;;;3.67;;
11245;SDS011;59870;50.106;8.580;2023-04-25T18:54:12;4.40;;;3.80;;
11245;SDS011;59870;50.106;8.580;2023-04-25T18:56:39;5.50;;;3.37;;
11245;SDS011;59870;50.106;8.580;2023-04-25T19:02:01;3.87;;;3.57;;
11245;SDS011;59870;50.106;8.580;2023-04-25T19:04:31;3.90;;;3.53;;
11245;SDS011;59870;50.106;8.580;2023-04-25T19:06:59;4.33;;;2.63;;
11245;SDS011;59870;50.106;8.580;2023-04-25T19:09:27;3.33;;;3.03;;
11245;SDS011;59870;50.106;8.580;2023-04-25T19:11:54;2.83;;;2.63;;
11245;SDS011;59870;50.106;8.580;2023-04-25T19:14:23;3.23;;;2.83;;
11245;SDS011;59870;50.106;8.580;2023-04-25T19:16:51;3.47;;;3.00;;
11245;SDS011;59870;50.106;8.580;2023-04-25T19:19:19;3.57;;;3.10;;
11245;SDS011;59870;50.106;8.580;2023-04-25T19:21:47;4.00;;;3.60;;
11245;SDS011;59870;50.106;8.580;2023-04-25T19:24:16;5.90;;;3.27;;
11245;SDS011;59870;50.106;8.580;2023-04-25T19:26:46;4.73;;;2.80;;
11245;SDS011;59870;50.106;8.580;2023-04-25T19:29:15;3.90;;;2.80;;
11245;SDS011;59870;50.106;8.580;2023-04-25T19:31:43;7.83;;;2.80;;
11245;SDS011;59870;50.106;8.580;2023-04-25T19:34:11;3.87;;;3.00;;
11245;SDS011;59870;50.106;8.580;2023-04-25T19:36:40;3.23;;;3.03;;
11245;SDS011;59870;50.106;8.580;2023-04-25T19:39:08;3.77;;;3.37;;
11245;SDS011;59870;50.106;8.580;2023-04-25T19:41:37;3.30;;;3.00;;
11245;SDS011;59870;50.106;8.580;2023-04-25T19:44:05;4.73;;;2.53;;
11245;SDS011;59870;50.106;8.580;2023-04-25T19:46:35;4.80;;;3.10;;